Terminal Aerodrome Forecast
Issued by NWS

Home | Current Version | Previous Version | Text Only | Print | Product List | Glossary On
Versions: 1 2 3 4 5 6 7 8 9 10 11 12 13 14 15 16 17 18 19 20 21 22 23 24 25 26
000
FTUS41 KOKX 241100
TAFSWF
TAF
KSWF 241130Z 2412/2518 28015G23KT P6SM SKC
     FM241400 32020G33KT P6SM SKC
     FM242100 32018G28KT P6SM SKC
     FM250100 31009KT P6SM SKC
     FM250300 28006KT P6SM SKC
     FM250900 VRB03KT P6SM SKC
     FM251600 17006KT P6SM SKC
      AMD NOT SKED=

USA.gov is the U.S. government's official web portal to all federal, state and local government web resources and services.